Time;durP1;ratioP1;P1;durP2;ratioP2;P2;SDS_P1;SDS_P2;PMS_P1;PMS_P2;Temp;Humidity;BMP_temperature;BMP_pressure;BME280_temperature;BME280_humidity;BME280_pressure;Samples;Min_cycle;Max_cycle;Signal;HPM_P1;HPM_P2
2023/12/19 00:00:09;;;;;;;13.00;7.80;;;;;;;10.85;89.45;101444.02;108143;1287;22006;-61
2023/12/19 00:02:35;;;;;;;12.90;7.90;;;;;;;10.82;89.33;101446.12;108231;1287;21988;-61
2023/12/19 00:05:01;;;;;;;12.60;8.10;;;;;;;10.77;89.11;101449.44;108211;1281;21987;-61
2023/12/19 00:07:29;;;;;;;10.90;7.50;;;;;;;10.74;89.13;101451.88;108082;1287;21980;-62
2023/12/19 00:09:55;;;;;;;10.50;8.00;;;;;;;10.70;89.27;101451.16;108089;1287;21995;-60
2023/12/19 00:12:21;;;;;;;9.70;7.20;;;;;;;10.66;89.09;101452.89;108079;1287;22064;-61
2023/12/19 00:14:46;;;;;;;12.70;8.00;;;;;;;10.62;89.01;101449.54;108021;1276;22083;-60
2023/12/19 00:17:12;;;;;;;11.00;7.00;;;;;;;10.58;89.22;101444.44;108096;1280;22055;-61
2023/12/19 00:19:37;;;;;;;9.90;7.50;;;;;;;10.54;89.53;101446.00;108167;1287;21999;-61
2023/12/19 00:22:03;;;;;;;12.50;7.40;;;;;;;10.49;89.38;101441.58;108182;1283;21991;-61
2023/12/19 00:24:29;;;;;;;10.00;7.20;;;;;;;10.45;89.12;101445.24;108238;1287;21989;-61
2023/12/19 00:26:55;;;;;;;10.60;7.50;;;;;;;10.42;89.17;101448.73;108284;1282;22642;-61
2023/12/19 00:29:20;;;;;;;10.90;7.70;;;;;;;10.37;89.21;101448.85;108154;1287;22024;-61
2023/12/19 00:31:46;;;;;;;12.80;7.80;;;;;;;10.33;89.02;101447.27;108218;1287;21994;-62
2023/12/19 00:34:13;;;;;;;12.40;7.60;;;;;;;10.29;89.06;101446.18;108193;1287;21986;-61
2023/12/19 00:36:39;;;;;;;11.50;7.90;;;;;;;10.25;89.13;101450.70;108180;1287;21997;-60
2023/12/19 00:39:04;;;;;;;11.40;7.60;;;;;;;10.23;89.42;101449.82;108183;1278;21987;-61
2023/12/19 00:41:30;;;;;;;11.80;8.00;;;;;;;10.21;89.83;101444.55;108097;1287;21993;-60
2023/12/19 00:43:55;;;;;;;11.90;8.00;;;;;;;10.18;90.05;101445.58;108105;1287;21994;-61
2023/12/19 00:46:24;;;;;;;11.90;7.40;;;;;;;10.18;89.68;101445.75;108106;1287;22009;-61
2023/12/19 00:48:49;;;;;;;13.40;8.50;;;;;;;10.18;89.56;101442.60;108112;1288;21992;-60
2023/12/19 00:51:15;;;;;;;14.50;8.50;;;;;;;10.16;89.48;101442.59;108085;1287;21989;-61
2023/12/19 00:53:43;;;;;;;12.80;9.10;;;;;;;10.13;89.58;101445.39;108096;1287;23052;-60
2023/12/19 00:56:09;;;;;;;15.20;8.70;;;;;;;10.09;89.52;101440.96;108158;1287;21999;-61
2023/12/19 00:58:38;;;;;;;11.10;7.80;;;;;;;10.07;89.64;101438.15;108134;1276;21996;-61
2023/12/19 01:01:04;;;;;;;12.40;8.60;;;;;;;10.05;89.64;101432.35;108179;1277;21983;-61
2023/12/19 01:03:30;;;;;;;13.40;8.30;;;;;;;10.02;89.82;101432.15;108092;1287;22032;-62
2023/12/19 01:05:55;;;;;;;20.20;9.80;;;;;;;9.98;89.71;101428.79;108108;1283;21987;-60
2023/12/19 01:08:21;;;;;;;12.70;8.70;;;;;;;9.95;89.85;101428.95;108132;1287;21989;-60
2023/12/19 01:10:47;;;;;;;11.20;8.10;;;;;;;9.91;89.90;101432.42;108101;1287;21994;-61
2023/12/19 01:13:12;;;;;;;14.40;9.30;;;;;;;9.88;90.07;101429.07;108141;1279;21991;-60
2023/12/19 01:15:38;;;;;;;14.60;9.10;;;;;;;9.85;90.26;101427.30;108094;1287;22167;-60
2023/12/19 01:18:04;;;;;;;12.20;9.10;;;;;;;9.83;90.33;101431.84;108079;1277;22044;-60
2023/12/19 01:20:29;;;;;;;14.80;9.60;;;;;;;9.81;90.17;101432.35;108120;1287;22454;-60
2023/12/19 01:22:55;;;;;;;13.00;8.70;;;;;;;9.79;90.11;101435.84;108099;1279;22467;-62
2023/12/19 01:25:20;;;;;;;16.70;9.00;;;;;;;9.78;90.03;101439.86;108098;1280;24475;-60
2023/12/19 01:27:46;;;;;;;12.80;8.60;;;;;;;9.76;89.97;101436.86;108106;1288;21994;-62
2023/12/19 01:30:12;;;;;;;11.90;7.90;;;;;;;9.74;89.99;101434.04;108114;1284;21983;-60
2023/12/19 01:32:38;;;;;;;14.50;8.90;;;;;;;9.74;90.19;101428.25;108119;1284;21983;-60
2023/12/19 01:35:04;;;;;;;15.50;8.70;;;;;;;9.72;90.23;101425.61;108202;1281;21986;-61
2023/12/19 01:37:30;;;;;;;13.30;9.20;;;;;;;9.72;90.32;101422.98;108200;1287;21994;-60
2023/12/19 01:39:56;;;;;;;15.10;9.90;;;;;;;9.70;90.78;101420.36;108200;1287;21997;-60
2023/12/19 01:42:21;;;;;;;14.50;9.50;;;;;;;9.66;90.75;101426.80;108115;1287;21997;-60
2023/12/19 01:44:59;;;;;;;16.90;9.90;;;;;;;9.63;90.84;101431.86;108091;1287;21990;-60
2023/12/19 01:47:24;;;;;;;17.90;9.90;;;;;;;9.59;91.00;101435.14;108132;1287;21999;-61
2023/12/19 01:49:50;;;;;;;12.60;8.70;;;;;;;9.56;91.25;101431.09;108134;1277;21990;-60
2023/12/19 01:52:18;;;;;;;14.90;10.10;;;;;;;9.55;91.18;101428.80;108153;1279;22452;-60
2023/12/19 01:54:44;;;;;;;15.90;10.50;;;;;;;9.52;91.32;101422.13;108061;1287;21987;-60
2023/12/19 01:57:09;;;;;;;16.60;10.80;;;;;;;9.50;91.91;101419.30;108114;1281;21987;-60
2023/12/19 01:59:35;;;;;;;14.60;9.50;;;;;;;9.51;92.31;101418.60;108077;1281;22009;-60
2023/12/19 02:02:00;;;;;;;17.40;10.30;;;;;;;9.54;91.92;101420.91;107940;1288;22449;-60
2023/12/19 02:04:26;;;;;;;14.10;9.60;;;;;;;9.54;92.06;101417.42;108130;1285;21998;-60
2023/12/19 02:06:51;;;;;;;13.80;9.70;;;;;;;9.49;93.51;101421.58;108101;1288;21993;-61
2023/12/19 02:09:17;;;;;;;15.10;9.80;;;;;;;9.50;93.85;101418.95;108110;1287;21992;-60
2023/12/19 02:11:43;;;;;;;19.00;10.60;;;;;;;9.53;94.05;101417.92;108144;1287;21977;-60
2023/12/19 02:14:08;;;;;;;15.70;9.50;;;;;;;9.58;93.23;101414.81;108120;1284;21991;-61
2023/12/19 02:16:34;;;;;;;16.20;10.30;;;;;;;9.62;92.79;101415.91;108079;1287;21988;-60
2023/12/19 02:19:01;;;;;;;14.70;10.00;;;;;;;9.66;92.83;101415.23;108210;1281;21987;-60
2023/12/19 02:21:27;;;;;;;13.50;10.00;;;;;;;9.68;93.48;101417.70;108235;1281;21999;-60
2023/12/19 02:23:52;;;;;;;15.90;9.20;;;;;;;9.69;93.60;101418.59;108133;1278;21998;-61
2023/12/19 02:26:18;;;;;;;14.80;9.70;;;;;;;9.71;93.32;101418.61;108177;1287;21991;-61
2023/12/19 02:28:43;;;;;;;14.10;9.10;;;;;;;9.74;93.30;101415.46;108064;1287;21997;-61
2023/12/19 02:31:09;;;;;;;13.00;9.00;;;;;;;9.78;93.32;101409.17;108184;1287;21988;-60
2023/12/19 02:33:34;;;;;;;12.80;8.60;;;;;;;9.83;93.50;101407.82;108114;1280;22080;-61
2023/12/19 02:36:00;;;;;;;13.80;9.30;;;;;;;9.89;93.41;101408.92;108116;1284;21990;-61
2023/12/19 02:38:25;;;;;;;14.70;8.90;;;;;;;9.94;93.59;101409.48;108210;1280;21989;-61
2023/12/19 02:40:52;;;;;;;14.30;9.90;;;;;;;9.98;93.88;101411.44;108144;1287;21989;-60
2023/12/19 02:43:17;;;;;;;14.50;8.80;;;;;;;10.03;93.77;101414.97;108124;1287;21987;-60
2023/12/19 02:45:43;;;;;;;12.40;8.90;;;;;;;10.08;93.51;101415.01;108058;1287;22454;-61
2023/12/19 02:48:08;;;;;;;15.20;9.90;;;;;;;10.11;93.74;101414.86;108126;1287;22002;-61
2023/12/19 02:50:34;;;;;;;13.40;8.90;;;;;;;10.14;93.61;101416.10;108045;1287;21990;-61
2023/12/19 02:52:59;;;;;;;16.00;10.50;;;;;;;10.18;93.57;101412.77;108130;1287;21994;-61
2023/12/19 02:55:25;;;;;;;13.50;8.70;;;;;;;10.21;93.61;101413.15;108124;1278;21985;-63
2023/12/19 02:57:50;;;;;;;14.30;9.40;;;;;;;10.23;93.83;101413.34;108104;1287;21989;-61
2023/12/19 03:00:16;;;;;;;15.20;9.60;;;;;;;10.22;94.43;101419.48;108093;1285;21993;-61
2023/12/19 03:02:43;;;;;;;14.90;9.90;;;;;;;10.20;94.75;101422.78;108149;1287;21997;-62
2023/12/19 03:05:09;;;;;;;12.90;9.10;;;;;;;10.20;94.47;101421.04;108120;1287;21992;-61
2023/12/19 03:07:34;;;;;;;14.80;10.50;;;;;;;10.22;94.39;101417.02;108091;1281;22006;-61
2023/12/19 03:10:05;;;;;;;14.90;9.60;;;;;;;10.26;94.25;101421.26;108086;1281;21986;-61
2023/12/19 03:12:31;;;;;;;17.20;9.50;;;;;;;10.31;94.03;101423.22;108103;1287;21987;-61
2023/12/19 03:14:57;;;;;;;12.90;9.10;;;;;;;10.37;94.29;101421.32;108074;1287;21995;-61
2023/12/19 03:17:22;;;;;;;15.70;9.90;;;;;;;10.42;94.37;101419.61;108072;1284;21995;-60
2023/12/19 03:19:48;;;;;;;17.30;9.80;;;;;;;10.45;94.31;101418.40;108096;1285;22026;-61
2023/12/19 03:22:13;;;;;;;16.30;9.90;;;;;;;10.47;94.61;101418.60;108121;1287;21992;-61
2023/12/19 03:24:39;;;;;;;13.90;9.60;;;;;;;10.50;94.35;101417.55;108130;1278;21984;-61
2023/12/19 03:27:04;;;;;;;17.60;9.80;;;;;;;10.55;94.31;101415.47;108098;1277;21984;-62
2023/12/19 03:29:32;;;;;;;16.10;10.00;;;;;;;10.61;94.24;101415.30;108065;1287;21989;-61
2023/12/19 03:31:57;;;;;;;14.70;9.00;;;;;;;10.66;94.20;101407.60;108050;1278;22044;-61
2023/12/19 03:34:23;;;;;;;16.40;10.80;;;;;;;10.71;93.97;101408.67;108110;1284;22235;-61
2023/12/19 03:36:49;;;;;;;15.60;9.60;;;;;;;10.75;93.83;101406.77;108055;1287;21987;-63
2023/12/19 03:39:14;;;;;;;18.90;11.00;;;;;;;10.77;93.84;101402.91;108122;1284;21993;-60
2023/12/19 03:41:40;;;;;;;16.30;10.70;;;;;;;10.78;93.52;101403.98;108173;1285;21995;-61
2023/12/19 03:44:06;;;;;;;19.50;11.70;;;;;;;10.77;93.14;101405.02;108138;1287;23396;-61
2023/12/19 03:46:31;;;;;;;14.50;9.40;;;;;;;10.76;93.10;101402.91;108075;1288;23695;-61
2023/12/19 03:48:57;;;;;;;16.70;10.20;;;;;;;10.77;93.12;101402.73;108064;1287;22021;-61
2023/12/19 03:51:22;;;;;;;26.10;11.60;;;;;;;10.79;93.48;101404.50;108149;1278;21998;-61
2023/12/19 03:53:48;;;;;;;15.90;10.10;;;;;;;10.81;93.89;101402.05;108098;1281;21987;-60
2023/12/19 03:56:14;;;;;;;16.20;9.60;;;;;;;10.87;93.93;101401.88;108108;1279;21989;-60
2023/12/19 03:58:39;;;;;;;15.20;9.50;;;;;;;10.90;93.72;101405.05;108122;1287;21994;-62
2023/12/19 04:01:05;;;;;;;15.80;9.80;;;;;;;10.90;93.69;101401.54;108165;1287;21990;-62
2023/12/19 04:03:30;;;;;;;16.70;10.40;;;;;;;10.92;93.61;101400.66;108161;1279;21999;-61
2023/12/19 04:05:56;;;;;;;14.50;10.70;;;;;;;10.94;93.36;101397.34;108072;1281;22033;-60
2023/12/19 04:08:21;;;;;;;15.40;10.10;;;;;;;10.95;93.38;101399.63;108073;1289;21994;-61
2023/12/19 04:10:47;;;;;;;15.80;9.50;;;;;;;10.96;93.63;101402.26;108155;1277;21992;-61
2023/12/19 04:13:13;;;;;;;13.30;8.70;;;;;;;11.00;93.59;101403.85;108243;1285;21990;-60
2023/12/19 04:15:38;;;;;;;19.50;8.80;;;;;;;11.03;93.71;101408.26;108132;1285;21991;-60
2023/12/19 04:18:04;;;;;;;12.70;8.80;;;;;;;11.04;93.54;101408.77;108149;1287;21989;-63
2023/12/19 04:20:32;;;;;;;12.30;8.40;;;;;;;11.05;93.41;101406.66;108258;1287;22027;-61
2023/12/19 04:22:58;;;;;;;13.50;8.10;;;;;;;11.08;93.58;101407.02;108070;1282;21989;-61
2023/12/19 04:25:23;;;;;;;12.70;8.60;;;;;;;11.11;93.45;101405.45;108080;1288;22065;-61
2023/12/19 04:27:49;;;;;;;14.20;8.80;;;;;;;11.11;93.23;101407.38;107926;1289;22015;-61
2023/12/19 04:30:14;;;;;;;13.20;8.40;;;;;;;11.13;93.44;101409.50;108060;1277;22002;-61
2023/12/19 04:32:40;;;;;;;14.50;8.40;;;;;;;11.12;93.31;101405.63;108065;1287;21986;-61
2023/12/19 04:35:07;;;;;;;16.40;9.10;;;;;;;11.12;93.04;101406.33;108050;1289;21996;-62
2023/12/19 04:37:32;;;;;;;14.40;8.40;;;;;;;11.12;92.87;101411.26;108082;1288;21992;-62
2023/12/19 04:39:58;;;;;;;12.70;8.50;;;;;;;11.10;92.96;101414.06;108116;1289;21982;-61
2023/12/19 04:42:24;;;;;;;13.10;7.60;;;;;;;11.08;93.11;101416.16;108082;1288;21993;-61
2023/12/19 04:44:49;;;;;;;13.20;8.60;;;;;;;11.08;93.02;101416.16;108059;1287;22006;-61
2023/12/19 04:47:15;;;;;;;12.00;7.10;;;;;;;11.09;93.18;101414.92;108077;1284;21990;-61
2023/12/19 04:49:42;;;;;;;12.10;8.40;;;;;;;11.12;93.45;101417.57;108115;1284;21990;-61
2023/12/19 04:52:07;;;;;;;14.70;8.40;;;;;;;11.16;93.56;101420.05;108188;1287;22032;-61
2023/12/19 04:54:33;;;;;;;12.90;8.30;;;;;;;11.20;93.94;101418.99;108079;1289;21989;-62
2023/12/19 04:56:59;;;;;;;18.80;8.40;;;;;;;11.21;93.75;101417.08;108081;1284;22013;-64
2023/12/19 04:59:24;;;;;;;14.80;8.30;;;;;;;11.22;93.63;101417.95;108051;1288;21989;-62
2023/12/19 05:01:50;;;;;;;13.00;8.60;;;;;;;11.22;93.34;101415.66;108067;1284;21990;-62
2023/12/19 05:04:16;;;;;;;16.50;9.50;;;;;;;11.22;93.37;101416.55;108092;1287;21989;-62
2023/12/19 05:06:41;;;;;;;12.10;7.90;;;;;;;11.21;93.15;101422.34;108101;1284;23663;-61
2023/12/19 05:09:08;;;;;;;13.20;8.00;;;;;;;11.19;93.09;101422.17;108038;1287;22010;-61
2023/12/19 05:11:34;;;;;;;14.70;8.40;;;;;;;11.19;93.43;101422.51;108099;1287;21986;-62
2023/12/19 05:13:59;;;;;;;12.30;7.90;;;;;;;11.22;93.99;101421.98;108170;1285;21996;-62
2023/12/19 05:16:25;;;;;;;13.10;7.60;;;;;;;11.23;93.59;101423.58;108103;1288;22008;-62
2023/12/19 05:18:50;;;;;;;15.30;8.10;;;;;;;11.23;93.47;101430.25;108186;1287;22011;-62
2023/12/19 05:21:16;;;;;;;14.00;8.20;;;;;;;11.23;93.34;101437.63;108157;1287;21961;-61
2023/12/19 05:23:42;;;;;;;14.80;8.20;;;;;;;11.23;93.24;101439.56;108125;1287;21992;-64
2023/12/19 05:26:08;;;;;;;15.50;8.70;;;;;;;11.21;93.21;101441.66;108139;1287;21990;-62
2023/12/19 05:28:34;;;;;;;12.20;8.60;;;;;;;11.18;93.23;101447.80;108102;1287;21958;-61
2023/12/19 05:31:00;;;;;;;16.20;9.10;;;;;;;11.16;93.34;101448.68;108140;1281;21991;-62
2023/12/19 05:33:29;;;;;;;13.00;8.80;;;;;;;11.14;93.46;101446.73;108074;1287;21978;-62
2023/12/19 05:35:55;;;;;;;14.10;8.60;;;;;;;11.12;93.34;101445.85;106764;1287;1003299;-61
2023/12/19 05:38:21;;;;;;;13.20;8.40;;;;;;;11.10;93.15;101440.93;108117;1287;21986;-63
2023/12/19 05:40:46;;;;;;;12.60;8.10;;;;;;;11.08;93.37;101441.96;108186;1287;21992;-62
2023/12/19 05:43:16;;;;;;;13.30;9.00;;;;;;;11.01;93.82;101438.98;108170;1287;22452;-63
2023/12/19 05:45:41;;;;;;;12.80;8.50;;;;;;;10.97;93.57;101440.73;108249;1285;21989;-61
2023/12/19 05:48:07;;;;;;;16.80;10.80;;;;;;;10.97;93.61;101440.90;108158;1287;21991;-62
2023/12/19 05:50:33;;;;;;;13.70;8.40;;;;;;;10.97;93.86;101440.38;108195;1287;21995;-61
2023/12/19 05:52:59;;;;;;;13.00;8.40;;;;;;;10.97;93.95;101437.20;108125;1281;21977;-63
2023/12/19 05:55:24;;;;;;;14.30;8.80;;;;;;;10.95;94.24;101435.80;108200;1287;21992;-61
2023/12/19 05:57:50;;;;;;;15.30;9.40;;;;;;;10.94;94.19;101435.63;108151;1284;21986;-63
2023/12/19 06:00:17;;;;;;;14.40;8.60;;;;;;;10.94;94.19;101435.27;108162;1287;21988;-61
2023/12/19 06:02:44;;;;;;;12.10;7.70;;;;;;;10.95;94.25;101438.95;108183;1287;21992;-61
2023/12/19 06:05:09;;;;;;;15.20;9.00;;;;;;;10.95;94.42;101442.29;108137;1287;21987;-62
2023/12/19 06:07:38;;;;;;;13.90;9.70;;;;;;;10.97;94.31;101441.95;108118;1287;23615;-61
2023/12/19 06:10:11;;;;;;;17.90;9.90;;;;;;;11.01;94.37;101441.27;108124;1288;22060;-61
2023/12/19 06:12:37;;;;;;;15.90;10.30;;;;;;;11.12;95.37;101440.58;108061;1289;23056;-61
2023/12/19 06:15:08;;;;;;;12.60;8.80;;;;;;;11.20;95.13;101447.98;108172;1278;21996;-61
2023/12/19 06:17:34;;;;;;;16.30;9.60;;;;;;;11.22;94.65;101452.74;108139;1287;21990;-62
2023/12/19 06:20:01;;;;;;;16.20;11.20;;;;;;;11.24;94.60;101445.89;108090;1278;23250;-61
2023/12/19 06:22:26;;;;;;;16.20;10.80;;;;;;;11.25;94.49;101442.02;108138;1277;21988;-62
2023/12/19 06:24:52;;;;;;;40.40;30.40;;;;;;;11.27;94.48;101440.77;108130;1287;21991;-60
2023/12/19 06:27:17;;;;;;;16.20;10.10;;;;;;;11.27;94.35;101439.91;108064;1287;21994;-61
2023/12/19 06:29:43;;;;;;;14.70;9.80;;;;;;;11.26;94.24;101432.19;108096;1287;22236;-62
2023/12/19 06:32:10;;;;;;;15.40;8.90;;;;;;;11.24;94.11;101423.06;108115;1287;21998;-61
2023/12/19 06:34:35;;;;;;;34.30;24.20;;;;;;;11.22;94.13;101423.04;108131;1287;21993;-62
2023/12/19 06:37:02;;;;;;;14.30;10.00;;;;;;;11.21;94.26;101425.68;108120;1287;23712;-63
2023/12/19 06:39:28;;;;;;;22.60;17.90;;;;;;;11.22;94.56;101430.79;107967;1278;287368;-61
2023/12/19 06:41:53;;;;;;;19.20;14.40;;;;;;;11.27;94.88;101439.03;108189;1287;21997;-61
2023/12/19 06:44:19;;;;;;;15.50;9.10;;;;;;;11.30;94.77;101439.92;108106;1281;21989;-61
2023/12/19 06:46:49;;;;;;;12.30;8.40;;;;;;;11.28;94.79;101438.16;108104;1287;21989;-61
2023/12/19 06:49:18;;;;;;;12.80;8.70;;;;;;;11.26;94.42;101432.35;108095;1287;21987;-61
2023/12/19 06:51:44;;;;;;;14.00;8.90;;;;;;;11.25;94.72;101433.77;108295;1281;21991;-60
2023/12/19 06:54:11;;;;;;;14.70;7.90;;;;;;;11.25;94.84;101433.59;107997;1287;22945;-60
2023/12/19 06:56:36;;;;;;;10.90;7.40;;;;;;;11.26;94.83;101433.94;108074;1287;21985;-60
2023/12/19 06:59:03;;;;;;;13.20;9.90;;;;;;;11.26;94.84;101434.47;108127;1284;22042;-60
2023/12/19 07:01:29;;;;;;;15.50;8.90;;;;;;;11.28;95.22;101438.33;108146;1287;21989;-61
2023/12/19 07:03:55;;;;;;;13.50;8.60;;;;;;;11.32;95.32;101435.71;108125;1277;21994;-60
2023/12/19 07:06:21;;;;;;;13.60;8.80;;;;;;;11.36;95.40;101434.83;108063;1278;21999;-59
2023/12/19 07:08:46;;;;;;;13.60;8.80;;;;;;;11.37;95.26;101425.16;108099;1288;22041;-61
2023/12/19 07:11:12;;;;;;;17.10;9.40;;;;;;;11.39;95.26;101430.10;108125;1287;21991;-61
2023/12/19 07:13:38;;;;;;;13.40;9.20;;;;;;;11.40;95.35;101429.91;108150;1287;23055;-60
2023/12/19 07:16:04;;;;;;;14.20;9.10;;;;;;;11.43;95.31;101430.63;108114;1287;22000;-61
2023/12/19 07:18:30;;;;;;;13.20;8.90;;;;;;;11.46;95.43;101432.39;108154;1287;21997;-61
2023/12/19 07:20:55;;;;;;;16.00;9.50;;;;;;;11.49;95.27;101429.75;108122;1284;21997;-60
2023/12/19 07:23:21;;;;;;;12.50;8.80;;;;;;;11.51;95.41;101429.05;108116;1288;21992;-61
2023/12/19 07:25:46;;;;;;;13.50;8.80;;;;;;;11.51;95.40;101426.95;108137;1287;22454;-61
2023/12/19 07:28:12;;;;;;;11.30;7.50;;;;;;;11.52;95.50;101422.36;108114;1281;21989;-60
2023/12/19 07:30:39;;;;;;;14.10;9.00;;;;;;;11.55;95.46;101420.78;108101;1288;21986;-60
2023/12/19 07:33:04;;;;;;;10.30;7.50;;;;;;;11.57;95.41;101421.32;108162;1284;21991;-62
2023/12/19 07:35:30;;;;;;;12.20;8.00;;;;;;;11.59;95.52;101423.78;108211;1287;21979;-60
2023/12/19 07:37:55;;;;;;;14.10;7.90;;;;;;;11.61;95.51;101419.91;108177;1281;22289;-61
2023/12/19 07:40:21;;;;;;;12.90;8.90;;;;;;;11.63;95.49;101414.30;108157;1287;22003;-61
2023/12/19 07:42:46;;;;;;;13.10;8.60;;;;;;;11.65;95.84;101414.99;108143;1285;21988;-61
2023/12/19 07:45:13;;;;;;;11.90;8.50;;;;;;;11.72;96.40;101419.91;108115;1287;21998;-60
2023/12/19 07:47:39;;;;;;;13.00;9.50;;;;;;;11.81;96.71;101421.66;108112;1287;21993;-61
2023/12/19 07:50:10;;;;;;;15.30;9.00;;;;;;;11.91;96.98;101424.29;108176;1287;22105;-60
2023/12/19 07:52:36;;;;;;;14.80;8.60;;;;;;;11.95;96.43;101424.82;108139;1282;22312;-60
2023/12/19 07:55:04;;;;;;;13.70;8.90;;;;;;;11.93;95.76;101421.31;108106;1287;21989;-60
2023/12/19 07:57:30;;;;;;;14.20;8.80;;;;;;;11.91;95.42;101420.43;108156;1287;23784;-61
2023/12/19 07:59:55;;;;;;;12.20;8.60;;;;;;;11.89;95.51;101421.65;108153;1287;22021;-60
2023/12/19 08:02:21;;;;;;;10.70;7.30;;;;;;;11.87;95.45;101423.42;108089;1282;22064;-60
2023/12/19 08:04:47;;;;;;;13.10;9.50;;;;;;;11.85;95.34;101424.30;108274;1287;22000;-61
2023/12/19 08:07:12;;;;;;;15.30;9.00;;;;;;;11.82;95.21;101421.31;108088;1287;21998;-63
2023/12/19 08:09:38;;;;;;;13.70;9.20;;;;;;;11.79;95.10;101419.20;108094;1283;22027;-60
2023/12/19 08:12:04;;;;;;;14.20;8.30;;;;;;;11.79;95.26;101416.75;108063;1288;21987;-60
2023/12/19 08:14:30;;;;;;;11.10;7.90;;;;;;;11.79;95.35;101414.64;108138;1284;22005;-61
2023/12/19 08:16:55;;;;;;;14.60;8.60;;;;;;;11.78;95.42;101415.52;108043;1284;21990;-62
2023/12/19 08:19:21;;;;;;;12.10;8.40;;;;;;;11.79;95.48;101414.81;108078;1287;21997;-61
2023/12/19 08:21:51;;;;;;;15.00;8.60;;;;;;;11.79;95.62;101411.47;108112;1285;21984;-60
2023/12/19 08:24:16;;;;;;;12.00;8.10;;;;;;;11.81;95.74;101409.52;108134;1287;23444;-61
2023/12/19 08:26:49;;;;;;;14.10;8.80;;;;;;;11.80;96.01;101410.77;108140;1287;22026;-61
2023/12/19 08:29:15;;;;;;;13.80;9.00;;;;;;;11.81;96.07;101412.52;108163;1287;23345;-61
2023/12/19 08:31:41;;;;;;;12.30;8.30;;;;;;;11.83;95.94;101411.11;108153;1287;21994;-62
2023/12/19 08:34:06;;;;;;;12.30;8.80;;;;;;;11.84;96.22;101410.05;108163;1287;21991;-61
2023/12/19 08:36:32;;;;;;;11.90;8.70;;;;;;;11.85;96.21;101407.60;108083;1287;21956;-62
2023/12/19 08:38:59;;;;;;;13.30;9.40;;;;;;;11.86;96.20;101402.84;108076;1288;21993;-61
2023/12/19 08:41:25;;;;;;;12.70;9.40;;;;;;;11.87;96.58;101394.59;108157;1283;21988;-61
2023/12/19 08:43:51;;;;;;;14.10;9.60;;;;;;;11.89;96.60;101390.55;108077;1287;22086;-62
2023/12/19 08:46:20;;;;;;;15.60;10.00;;;;;;;11.92;96.73;101379.10;108254;1287;22169;-61
2023/12/19 08:48:47;;;;;;;12.70;9.20;;;;;;;11.94;96.90;101375.73;108226;1287;21994;-61
2023/12/19 08:51:13;;;;;;;13.90;9.10;;;;;;;11.98;97.03;101372.92;108158;1287;22068;-61
2023/12/19 08:53:38;;;;;;;13.30;9.20;;;;;;;12.05;97.12;101367.14;108118;1287;22026;-62
2023/12/19 08:56:04;;;;;;;13.80;9.70;;;;;;;12.14;97.26;101363.23;108133;1287;22090;-61
2023/12/19 08:58:30;;;;;;;13.00;8.50;;;;;;;12.19;97.00;101365.50;108177;1287;21986;-62
2023/12/19 09:00:56;;;;;;;12.40;8.70;;;;;;;12.21;96.68;101365.85;108244;1283;21990;-61
2023/12/19 09:03:23;;;;;;;10.80;8.10;;;;;;;12.25;96.91;101360.73;108106;1287;21995;-61
2023/12/19 09:05:50;;;;;;;15.50;8.80;;;;;;;12.31;97.09;101352.27;108115;1287;21987;-61
2023/12/19 09:08:16;;;;;;;13.40;9.20;;;;;;;12.39;97.26;101340.80;108168;1287;21995;-61
2023/12/19 09:10:42;;;;;;;12.20;8.60;;;;;;;12.48;97.22;101333.89;108191;1287;22044;-60
2023/12/19 09:13:07;;;;;;;12.30;8.50;;;;;;;12.55;97.05;101331.40;108188;1287;22458;-62
2023/12/19 09:15:35;;;;;;;13.00;8.50;;;;;;;12.61;96.83;101324.50;108211;1287;21995;-61
2023/12/19 09:18:00;;;;;;;12.30;8.80;;;;;;;12.67;96.68;101316.36;108116;1277;21988;-61
2023/12/19 09:20:26;;;;;;;14.20;9.80;;;;;;;12.70;96.23;101312.11;108111;1287;22012;-62
2023/12/19 09:22:51;;;;;;;12.70;9.00;;;;;;;12.72;96.15;101310.16;108109;1288;21994;-61
2023/12/19 09:25:18;;;;;;;14.10;8.80;;;;;;;12.77;96.16;101307.33;108109;1284;21987;-61
2023/12/19 09:27:45;;;;;;;10.30;7.40;;;;;;;12.83;96.30;101301.48;108155;1288;21991;-62
2023/12/19 09:30:12;;;;;;;9.80;6.40;;;;;;;12.87;95.89;101291.21;108180;1277;22300;-61
2023/12/19 09:32:38;;;;;;;9.10;6.10;;;;;;;12.89;95.22;101282.39;108160;1288;21993;-61
2023/12/19 09:35:06;;;;;;;8.90;6.00;;;;;;;12.92;95.11;101283.79;108114;1283;21998;-61
2023/12/19 09:37:31;;;;;;;8.40;6.50;;;;;;;12.92;94.70;101279.91;106690;1287;1002547;-62
2023/12/19 09:39:57;;;;;;;11.00;7.70;;;;;;;12.94;94.53;101271.10;108122;1277;21986;-61
2023/12/19 09:42:23;;;;;;;10.50;7.40;;;;;;;12.95;94.43;101260.17;108127;1288;21990;-61
2023/12/19 09:44:49;;;;;;;10.10;7.40;;;;;;;12.97;94.44;101256.63;108183;1280;21992;-61
2023/12/19 09:47:25;;;;;;;11.10;7.10;;;;;;;12.99;94.41;101257.85;108089;1287;22023;-61
2023/12/19 09:49:52;;;;;;;13.00;7.80;;;;;;;13.00;94.18;101268.59;108203;1287;22030;-61
2023/12/19 09:52:22;;;;;;;10.80;6.80;;;;;;;13.01;94.38;101274.73;108056;1288;21994;-61
2023/12/19 09:54:51;;;;;;;7.90;5.70;;;;;;;13.05;94.62;101274.17;108115;1283;23854;-61
2023/12/19 09:57:20;;;;;;;9.00;6.10;;;;;;;13.05;93.86;101268.88;108110;1288;21996;-62
2023/12/19 09:59:50;;;;;;;10.00;6.70;;;;;;;13.08;93.79;101269.91;108114;1286;21989;-61
2023/12/19 10:02:17;;;;;;;9.00;5.70;;;;;;;13.09;93.43;101265.67;108265;1287;22041;-61
2023/12/19 10:04:45;;;;;;;7.60;5.20;;;;;;;13.12;93.57;101254.20;108190;1287;21994;-61
2023/12/19 10:07:11;;;;;;;7.70;5.40;;;;;;;13.18;93.86;101249.56;108218;1287;21991;-61
2023/12/19 10:09:56;;;;;;;6.40;4.90;;;;;;;13.26;93.93;101242.09;108153;1287;21990;-61
2023/12/19 10:12:29;;;;;;;7.30;4.90;;;;;;;13.33;93.90;101235.69;108195;1280;22268;-61
2023/12/19 10:15:13;;;;;;;8.80;5.40;;;;;;;13.31;94.36;101233.94;108233;1286;22107;-61
2023/12/19 10:17:39;;;;;;;9.00;6.10;;;;;;;13.41;94.62;101239.33;108145;1288;21990;-62
2023/12/19 10:20:11;;;;;;;9.50;5.70;;;;;;;13.50;93.96;101235.00;108104;1288;21998;-61
2023/12/19 10:22:39;;;;;;;7.50;5.20;;;;;;;13.53;93.04;101242.20;108091;1288;22021;-61
2023/12/19 10:25:07;;;;;;;7.70;5.40;;;;;;;13.51;92.22;101240.11;108112;1288;22023;-62
2023/12/19 10:27:33;;;;;;;8.30;5.70;;;;;;;13.51;92.44;101242.04;108114;1288;21989;-62
2023/12/19 10:30:18;;;;;;;7.20;5.00;;;;;;;13.48;91.73;101238.89;108102;1288;21995;-62
2023/12/19 10:32:46;;;;;;;8.30;5.50;;;;;;;13.46;90.91;101239.27;108133;1288;21998;-62
2023/12/19 10:35:12;;;;;;;8.80;5.20;;;;;;;13.46;91.32;101239.11;108151;1283;21995;-61
2023/12/19 10:37:37;;;;;;;9.20;5.80;;;;;;;13.47;91.47;101232.21;108026;1287;21998;-61
2023/12/19 10:40:09;;;;;;;8.50;5.80;;;;;;;13.49;92.00;101221.43;108114;1287;21993;-61
2023/12/19 10:42:36;;;;;;;7.90;5.80;;;;;;;13.51;91.60;101214.19;108238;1287;21998;-61
2023/12/19 10:45:04;;;;;;;7.80;5.30;;;;;;;13.54;91.76;101208.33;108203;1287;23133;-60
2023/12/19 10:47:29;;;;;;;9.20;5.40;;;;;;;13.58;91.82;101206.70;108116;1287;22011;-60
2023/12/19 10:49:55;;;;;;;8.60;5.90;;;;;;;13.64;92.22;101209.82;108022;1287;22223;-60
2023/12/19 10:52:20;;;;;;;9.80;6.40;;;;;;;13.67;91.88;101206.61;108089;1284;21992;-59
2023/12/19 10:54:46;;;;;;;8.00;6.00;;;;;;;13.70;92.19;101206.04;106404;1287;1002596;-60
2023/12/19 10:57:16;;;;;;;9.20;5.40;;;;;;;13.76;92.81;101208.96;108050;1287;22000;-59
2023/12/19 10:59:51;;;;;;;9.00;6.30;;;;;;;13.83;93.02;101212.23;108137;1286;23721;-60
2023/12/19 11:02:24;;;;;;;8.30;6.10;;;;;;;13.89;92.69;101212.34;108105;1287;23740;-60
2023/12/19 11:04:51;;;;;;;9.30;6.40;;;;;;;13.96;92.79;101213.13;108131;1287;22196;-60